Time;durP1;ratioP1;P1;durP2;ratioP2;P2;SDS_P1;SDS_P2;PMS_P1;PMS_P2;Temp;Humidity;BMP_temperature;BMP_pressure;BME280_temperature;BME280_humidity;BME280_pressure;Samples;Min_cycle;Max_cycle;Signal;HPM_P1;HPM_P2
2021/07/24 00:01:15;;;;;;;14.05;12.60;;;16.10;99.90;;;;;;5093938;28;20127;-83
2021/07/24 00:03:41;;;;;;;16.38;12.57;;;16.00;99.90;;;;;;5094527;28;20055;-84
2021/07/24 00:06:07;;;;;;;14.18;11.52;;;16.00;99.90;;;;;;5094150;28;20024;-84
2021/07/24 00:08:33;;;;;;;13.48;11.93;;;16.00;99.90;;;;;;5094154;28;20046;-84
2021/07/24 00:11:17;;;;;;;12.27;11.13;;;16.00;99.90;;;;;;5093976;28;20028;-90
2021/07/24 00:13:43;;;;;;;14.15;11.40;;;16.00;99.90;;;;;;5094247;28;20073;-84
2021/07/24 00:16:08;;;;;;;15.20;11.32;;;16.00;99.90;;;;;;5094102;28;20024;-92
2021/07/24 00:18:34;;;;;;;15.55;11.05;;;15.90;99.90;;;;;;5094289;28;20333;-83
2021/07/24 00:21:00;;;;;;;13.25;11.40;;;15.90;99.90;;;;;;5094009;28;20024;-84
2021/07/24 00:23:26;;;;;;;11.93;10.70;;;15.80;99.90;;;;;;5094160;28;20024;-83
2021/07/24 00:25:52;;;;;;;14.20;10.23;;;15.80;99.90;;;;;;5093934;28;20035;-84
2021/07/24 00:28:18;;;;;;;13.40;10.35;;;15.80;99.90;;;;;;5095349;28;20455;-83
2021/07/24 00:30:45;;;;;;;14.27;10.93;;;15.70;99.90;;;;;;5093276;28;20047;-84
2021/07/24 00:33:10;;;;;;;13.95;11.27;;;15.70;99.90;;;;;;5093520;28;20031;-84
2021/07/24 00:35:38;;;;;;;13.50;11.32;;;15.70;99.90;;;;;;5094807;28;20383;-83
2021/07/24 00:38:04;;;;;;;11.15;10.05;;;15.70;99.90;;;;;;5093757;28;20020;-84
2021/07/24 00:40:35;;;;;;;12.55;10.55;;;15.60;99.90;;;;;;5093622;28;20115;-84
2021/07/24 00:43:02;;;;;;;12.13;10.85;;;15.60;99.90;;;;;;5093339;28;20036;-83
2021/07/24 00:45:34;;;;;;;12.48;10.15;;;15.50;99.90;;;;;;5093159;28;20024;-84
2021/07/24 00:48:00;;;;;;;12.40;10.20;;;15.50;99.90;;;;;;5093041;28;20073;-84
2021/07/24 00:50:26;;;;;;;13.75;11.38;;;15.50;99.90;;;;;;5093473;28;20032;-84
2021/07/24 00:52:59;;;;;;;12.32;10.25;;;15.50;99.90;;;;;;5094161;28;20031;-83
2021/07/24 00:55:25;;;;;;;12.75;10.60;;;15.50;99.90;;;;;;5094553;28;20027;-84
2021/07/24 00:57:50;;;;;;;13.05;10.27;;;15.50;99.90;;;;;;5093721;28;20394;-83
2021/07/24 01:00:16;;;;;;;12.35;9.88;;;15.40;99.90;;;;;;5093264;28;20052;-84
2021/07/24 01:02:42;;;;;;;12.38;10.68;;;15.40;99.90;;;;;;5094537;28;20047;-84
2021/07/24 01:05:08;;;;;;;13.35;10.38;;;15.40;99.90;;;;;;5094480;28;20027;-84
2021/07/24 01:07:37;;;;;;;11.45;10.32;;;15.40;99.90;;;;;;5092368;28;20421;-84
2021/07/24 01:10:04;;;;;;;11.43;10.27;;;15.30;99.90;;;;;;5093239;28;20032;-83
2021/07/24 01:12:31;;;;;;;13.55;11.52;;;15.30;99.90;;;;;;5093023;28;20109;-84
2021/07/24 01:14:57;;;;;;;11.70;10.50;;;15.30;99.90;;;;;;5093117;28;20034;-89
2021/07/24 01:17:23;;;;;;;13.95;10.80;;;15.30;99.90;;;;;;5093076;28;20021;-86
2021/07/24 01:19:48;;;;;;;17.10;11.73;;;15.30;99.90;;;;;;5093260;28;20028;-90
2021/07/24 01:22:14;;;;;;;12.13;10.43;;;15.30;99.90;;;;;;5092974;28;20463;-85
2021/07/24 01:24:40;;;;;;;11.88;10.65;;;15.30;99.90;;;;;;5092899;28;20035;-84
2021/07/24 01:27:10;;;;;;;12.05;10.50;;;15.30;99.90;;;;;;5093143;28;20024;-84
2021/07/24 01:29:36;;;;;;;12.85;10.63;;;15.20;99.90;;;;;;5092760;28;20036;-84
2021/07/24 01:32:03;;;;;;;12.23;10.73;;;15.20;99.90;;;;;;5092922;28;20023;-83
2021/07/24 01:34:29;;;;;;;11.35;10.02;;;15.10;99.90;;;;;;5092870;28;20020;-84
2021/07/24 01:36:54;;;;;;;12.40;10.63;;;15.10;99.90;;;;;;5092991;28;20043;-89
2021/07/24 01:39:20;;;;;;;13.13;10.77;;;15.10;99.90;;;;;;5093085;28;20501;-87
2021/07/24 01:41:46;;;;;;;13.05;11.27;;;15.10;99.90;;;;;;5092960;28;20488;-84
2021/07/24 01:44:12;;;;;;;15.85;10.88;;;15.20;99.90;;;;;;5092982;28;20028;-83
2021/07/24 01:46:38;;;;;;;15.07;11.95;;;15.10;99.90;;;;;;5093157;28;20021;-84
2021/07/24 01:49:11;;;;;;;11.98;10.75;;;15.20;99.90;;;;;;5092958;28;20124;-85
2021/07/24 01:55:03;;;;;;;13.27;10.77;;;15.20;99.90;;;;;;5094318;28;20035;-85
2021/07/24 01:57:33;;;;;;;15.07;10.00;;;15.10;99.90;;;;;;5092724;28;20028;-84
2021/07/24 02:00:08;;;;;;;12.80;10.98;;;15.10;99.90;;;;;;5092561;28;20120;-83
2021/07/24 02:02:35;;;;;;;13.20;10.57;;;15.10;99.90;;;;;;5092846;28;20026;-89
2021/07/24 02:05:04;;;;;;;12.15;10.00;;;15.10;99.90;;;;;;5092887;28;20035;-83
2021/07/24 02:07:34;;;;;;;11.40;10.05;;;15.10;99.90;;;;;;5092746;28;20035;-83
2021/07/24 02:10:00;;;;;;;11.30;10.20;;;15.10;99.90;;;;;;5092610;28;20039;-83
2021/07/24 02:12:26;;;;;;;11.85;10.32;;;15.00;99.90;;;;;;5092226;28;20054;-84
2021/07/24 02:14:52;;;;;;;12.27;10.98;;;14.90;99.90;;;;;;5097640;28;20020;-83
2021/07/24 02:17:17;;;;;;;12.20;10.43;;;14.90;99.90;;;;;;5096221;28;20027;-83
2021/07/24 02:19:43;;;;;;;11.60;10.40;;;14.90;99.90;;;;;;5096203;28;20387;-85
2021/07/24 02:22:09;;;;;;;11.00;9.85;;;14.80;99.90;;;;;;5096405;28;20115;-84
2021/07/24 02:24:35;;;;;;;12.05;10.50;;;14.80;99.90;;;;;;5096410;28;20115;-85
2021/07/24 02:27:07;;;;;;;13.57;10.40;;;14.80;99.90;;;;;;5096085;28;20024;-84
2021/07/24 02:29:33;;;;;;;11.35;9.68;;;14.80;99.90;;;;;;5096174;28;20032;-83
2021/07/24 02:31:59;;;;;;;11.68;10.52;;;14.80;99.90;;;;;;5095943;28;20020;-90
2021/07/24 02:34:24;;;;;;;14.30;11.05;;;14.70;99.90;;;;;;5096194;28;20552;-86
2021/07/24 02:36:50;;;;;;;14.40;11.07;;;14.70;99.90;;;;;;5096009;28;20157;-84
2021/07/24 02:39:16;;;;;;;13.75;11.30;;;14.70;99.90;;;;;;5096071;28;20169;-84
2021/07/24 02:41:41;;;;;;;13.38;11.27;;;14.60;99.90;;;;;;5095795;28;20024;-86
2021/07/24 02:44:07;;;;;;;11.40;10.25;;;14.60;99.90;;;;;;5095855;28;20032;-84
2021/07/24 02:46:32;;;;;;;11.48;10.27;;;14.50;99.90;;;;;;5095923;28;20538;-84
2021/07/24 02:48:58;;;;;;;12.40;11.10;;;14.60;99.90;;;;;;5095729;28;20028;-90
2021/07/24 02:51:24;;;;;;;15.00;11.15;;;14.60;99.90;;;;;;5095577;28;20421;-83
2021/07/24 02:53:49;;;;;;;12.43;10.70;;;14.60;99.90;;;;;;5095758;28;20020;-83
2021/07/24 02:56:15;;;;;;;12.73;11.15;;;14.60;99.90;;;;;;5095587;28;20035;-86
2021/07/24 02:58:41;;;;;;;13.90;11.38;;;14.60;99.90;;;;;;5095138;28;20046;-85
2021/07/24 03:01:08;;;;;;;13.80;11.20;;;14.60;99.90;;;;;;5095248;28;20048;-84
2021/07/24 03:03:34;;;;;;;12.40;11.13;;;14.60;99.90;;;;;;5095573;28;20415;-87
2021/07/24 03:06:00;;;;;;;11.98;10.77;;;14.60;99.90;;;;;;5095084;28;20396;-84
2021/07/24 03:08:26;;;;;;;14.40;11.80;;;14.50;99.90;;;;;;5095113;28;20028;-85
2021/07/24 03:10:51;;;;;;;12.30;11.05;;;14.40;99.90;;;;;;5095332;28;20036;-86
2021/07/24 03:13:17;;;;;;;13.25;10.05;;;14.30;99.90;;;;;;5095445;28;20024;-86
2021/07/24 03:15:43;;;;;;;14.70;10.95;;;14.30;99.90;;;;;;5095258;28;20020;-86
2021/07/24 03:18:08;;;;;;;11.30;10.20;;;14.20;99.90;;;;;;5095129;28;20027;-85
2021/07/24 03:20:34;;;;;;;11.48;10.27;;;14.20;99.90;;;;;;5095096;28;20060;-87
2021/07/24 03:23:00;;;;;;;16.30;11.75;;;14.20;99.90;;;;;;5095186;28;20055;-84
2021/07/24 03:25:27;;;;;;;12.55;11.25;;;14.20;99.90;;;;;;5093904;28;20032;-85
2021/07/24 03:27:53;;;;;;;16.90;10.90;;;14.20;99.90;;;;;;5095087;28;20453;-87
2021/07/24 03:30:19;;;;;;;13.43;11.82;;;14.20;99.90;;;;;;5094930;28;20032;-89
2021/07/24 03:32:45;;;;;;;12.07;10.88;;;14.20;99.90;;;;;;5095951;28;20038;-85
2021/07/24 03:35:11;;;;;;;12.80;10.63;;;14.20;99.90;;;;;;5094906;28;20036;-85
2021/07/24 03:37:37;;;;;;;11.98;10.18;;;14.30;99.90;;;;;;5094593;28;20016;-85
2021/07/24 03:40:03;;;;;;;12.18;10.13;;;14.30;99.90;;;;;;5094750;28;20032;-86
2021/07/24 03:42:29;;;;;;;14.18;10.38;;;14.40;99.90;;;;;;5094732;28;20027;-84
2021/07/24 03:44:54;;;;;;;10.90;9.43;;;14.40;99.90;;;;;;5094784;28;20095;-84
2021/07/24 03:47:20;;;;;;;12.70;9.18;;;14.40;99.90;;;;;;5094808;28;20023;-89
2021/07/24 03:49:46;;;;;;;13.63;9.90;;;14.50;99.90;;;;;;5094627;28;20035;-86
2021/07/24 03:52:11;;;;;;;13.63;9.65;;;14.40;99.90;;;;;;5094721;28;20020;-84
2021/07/24 03:54:37;;;;;;;11.02;9.93;;;14.50;99.90;;;;;;5094551;28;20031;-84
2021/07/24 03:57:03;;;;;;;9.57;8.68;;;14.50;99.90;;;;;;5094285;28;20026;-85
2021/07/24 03:59:28;;;;;;;12.38;8.60;;;14.70;99.90;;;;;;5094325;28;20079;-86
2021/07/24 04:01:57;;;;;;;8.20;7.40;;;16.70;99.90;;;;;;5096648;28;20024;-86
2021/07/24 04:04:22;;;;;;;12.13;8.00;;;17.60;99.90;;;;;;5094756;28;20028;-83
2021/07/24 04:06:49;;;;;;;10.70;7.97;;;18.50;99.90;;;;;;5094592;28;20024;-86
2021/07/24 04:09:15;;;;;;;9.70;7.95;;;18.70;99.90;;;;;;5094282;28;20051;-85
2021/07/24 04:11:41;;;;;;;9.82;8.25;;;18.70;99.90;;;;;;5095301;28;20099;-85
2021/07/24 04:14:07;;;;;;;10.90;9.68;;;18.70;99.90;;;;;;5099126;28;20020;-86
2021/07/24 04:16:33;;;;;;;9.27;8.38;;;18.20;99.90;;;;;;5094380;28;20101;-89
2021/07/24 04:19:00;;;;;;;14.65;8.80;;;18.40;99.90;;;;;;5094306;28;20063;-85
2021/07/24 04:21:25;;;;;;;8.73;7.82;;;18.90;99.90;;;;;;5093945;28;20023;-85
2021/07/24 04:23:51;;;;;;;8.82;6.90;;;18.70;99.90;;;;;;5094074;28;20024;-86
2021/07/24 04:26:17;;;;;;;13.13;7.32;;;18.70;99.90;;;;;;5094252;28;20020;-87
2021/07/24 04:28:43;;;;;;;7.72;6.93;;;18.70;99.90;;;;;;5093918;28;20028;-86
2021/07/24 04:31:13;;;;;;;9.73;6.68;;;19.10;99.90;;;;;;5094886;28;20447;-87
2021/07/24 04:33:39;;;;;;;8.40;7.60;;;19.20;99.90;;;;;;5093876;28;20020;-86
2021/07/24 04:36:04;;;;;;;14.75;13.20;;;18.50;99.90;;;;;;5093417;28;20030;-86
2021/07/24 04:38:30;;;;;;;18.70;16.80;;;18.20;99.90;;;;;;5097872;28;20031;-87
2021/07/24 04:40:56;;;;;;;30.40;21.55;;;17.90;99.90;;;;;;5092916;28;20020;-81
2021/07/24 04:43:21;;;;;;;31.35;26.65;;;17.70;99.90;;;;;;5092808;28;20118;-79
2021/07/24 04:45:47;;;;;;;17.58;14.38;;;17.90;99.90;;;;;;5092681;28;20035;-80
2021/07/24 04:48:13;;;;;;;14.48;11.30;;;18.10;99.90;;;;;;5093531;28;20367;-80
2021/07/24 04:50:43;;;;;;;14.85;10.05;;;17.90;99.90;;;;;;5092435;28;20439;-78
2021/07/24 04:53:12;;;;;;;12.38;9.23;;;17.80;99.90;;;;;;5092271;28;20518;-80
2021/07/24 04:55:38;;;;;;;11.07;9.98;;;17.40;99.90;;;;;;5092261;28;20035;-79
2021/07/24 04:58:09;;;;;;;9.75;8.75;;;17.40;99.90;;;;;;5092162;28;20020;-86
2021/07/24 05:00:45;;;;;;;14.55;9.15;;;17.60;99.90;;;;;;5092315;28;20185;-80
2021/07/24 05:03:15;;;;;;;9.55;8.55;;;17.70;99.90;;;;;;5092237;28;20016;-81
2021/07/24 05:05:41;;;;;;;10.73;8.88;;;18.00;99.90;;;;;;5092454;28;20054;-80
2021/07/24 05:08:08;;;;;;;12.07;9.10;;;18.40;99.90;;;;;;5092169;28;20464;-80
2021/07/24 05:10:34;;;;;;;11.25;8.82;;;18.50;99.90;;;;;;5092006;28;20032;-80
2021/07/24 05:13:00;;;;;;;9.43;8.40;;;18.90;99.90;;;;;;5091971;28;20024;-80
2021/07/24 05:15:25;;;;;;;10.80;8.05;;;19.10;99.90;;;;;;5092190;28;20162;-80
2021/07/24 05:17:51;;;;;;;8.13;7.20;;;19.10;99.90;;;;;;5091892;28;20059;-79
2021/07/24 05:20:17;;;;;;;11.23;8.27;;;19.10;99.90;;;;;;5091643;28;20030;-80
2021/07/24 05:22:43;;;;;;;10.25;8.68;;;19.00;99.90;;;;;;5091676;28;20027;-83
2021/07/24 05:25:09;;;;;;;8.68;7.82;;;19.10;99.90;;;;;;5092282;28;20024;-84
2021/07/24 05:27:35;;;;;;;16.38;8.75;;;19.00;99.90;;;;;;5093131;28;20054;-79
2021/07/24 05:30:00;;;;;;;8.10;7.20;;;19.50;99.90;;;;;;5091858;28;20035;-83
2021/07/24 05:32:26;;;;;;;10.00;8.98;;;19.70;99.90;;;;;;5091641;28;20535;-81
2021/07/24 05:34:52;;;;;;;10.77;9.38;;;20.00;99.90;;;;;;5092090;28;20028;-82
2021/07/24 05:37:17;;;;;;;10.48;9.02;;;19.90;99.90;;;;;;5091793;28;20024;-78
2021/07/24 05:39:43;;;;;;;9.73;8.05;;;19.70;99.90;;;;;;5092949;28;20020;-81
2021/07/24 05:42:09;;;;;;;8.85;7.95;;;19.70;99.90;;;;;;5091628;28;20024;-79
2021/07/24 05:44:35;;;;;;;8.50;7.47;;;19.70;99.10;;;;;;5091762;28;20024;-78
2021/07/24 05:47:02;;;;;;;10.80;7.78;;;19.80;99.20;;;;;;5090794;28;20494;-78
2021/07/24 05:49:28;;;;;;;9.73;7.97;;;19.70;99.60;;;;;;5093618;28;20036;-79
2021/07/24 05:51:54;;;;;;;13.43;8.00;;;19.80;99.80;;;;;;5095337;28;20027;-82
2021/07/24 05:54:22;;;;;;;11.75;8.18;;;20.20;99.50;;;;;;5094494;28;20028;-77
2021/07/24 05:56:51;;;;;;;10.02;7.85;;;20.50;99.80;;;;;;5095100;28;20028;-80
2021/07/24 05:59:17;;;;;;;13.07;7.93;;;20.70;98.90;;;;;;5095470;28;20052;-78
2021/07/24 06:01:43;;;;;;;9.07;7.30;;;20.70;98.10;;;;;;5097013;28;20016;-82
2021/07/24 06:04:08;;;;;;;10.73;7.93;;;20.50;98.70;;;;;;5095841;28;20123;-85
2021/07/24 06:06:34;;;;;;;10.63;8.90;;;20.20;99.50;;;;;;5095199;28;20378;-87
2021/07/24 06:09:00;;;;;;;10.65;8.05;;;20.10;99.90;;;;;;5095020;28;20458;-84
2021/07/24 06:11:26;;;;;;;9.95;8.10;;;20.10;99.90;;;;;;5096016;28;20467;-84
2021/07/24 06:13:52;;;;;;;8.45;7.65;;;20.00;99.90;;;;;;5095329;28;20046;-83
2021/07/24 06:16:18;;;;;;;9.68;8.23;;;20.00;99.90;;;;;;5095033;28;20394;-85
2021/07/24 06:18:43;;;;;;;9.05;8.15;;;20.10;99.90;;;;;;5094993;28;20526;-82
2021/07/24 06:21:16;;;;;;;9.38;8.00;;;20.20;99.90;;;;;;5094845;28;20032;-84
2021/07/24 06:23:42;;;;;;;9.65;8.00;;;20.40;99.90;;;;;;5095115;28;20020;-86
2021/07/24 06:26:08;;;;;;;8.35;7.55;;;20.40;99.40;;;;;;5095254;28;20021;-83
2021/07/24 06:28:34;;;;;;;12.77;7.93;;;20.50;99.50;;;;;;5095213;28;20031;-84
2021/07/24 06:31:01;;;;;;;7.97;7.18;;;20.40;99.90;;;;;;5094526;28;20032;-85
2021/07/24 06:33:27;;;;;;;8.25;6.65;;;20.60;98.90;;;;;;5094870;28;20077;-86
2021/07/24 06:35:53;;;;;;;11.05;7.60;;;20.70;97.20;;;;;;5094488;28;20017;-85
2021/07/24 06:38:19;;;;;;;9.65;8.20;;;20.70;99.40;;;;;;5094532;28;20027;-86
2021/07/24 06:40:44;;;;;;;11.60;8.13;;;21.00;99.50;;;;;;5094621;28;20043;-83
2021/07/24 06:43:10;;;;;;;13.55;9.95;;;21.10;99.90;;;;;;5094405;28;20028;-83
2021/07/24 06:45:37;;;;;;;11.48;10.18;;;21.20;99.90;;;;;;5094607;28;20109;-83
2021/07/24 06:48:03;;;;;;;11.77;10.65;;;21.20;99.90;;;;;;5094528;28;20012;-83
2021/07/24 06:50:29;;;;;;;15.35;11.68;;;21.30;99.90;;;;;;5094602;28;20552;-83
2021/07/24 06:52:59;;;;;;;12.15;10.57;;;21.40;99.90;;;;;;5094168;28;20020;-83
2021/07/24 06:55:25;;;;;;;13.90;10.48;;;21.60;99.90;;;;;;5094319;28;20082;-85
2021/07/24 06:57:50;;;;;;;13.18;10.07;;;21.80;99.90;;;;;;5094278;28;20028;-86
2021/07/24 07:00:16;;;;;;;11.13;9.77;;;21.90;99.90;;;;;;5093798;28;20109;-84
2021/07/24 07:02:42;;;;;;;10.88;9.20;;;21.90;99.90;;;;;;5094021;28;20020;-84
2021/07/24 07:05:08;;;;;;;11.23;9.10;;;22.10;99.90;;;;;;5093996;28;20024;-85
2021/07/24 07:07:34;;;;;;;10.68;7.68;;;22.30;99.30;;;;;;5094048;28;20024;-83
2021/07/24 07:10:00;;;;;;;9.68;8.75;;;22.30;97.60;;;;;;5094106;28;20043;-84
2021/07/24 07:12:26;;;;;;;8.57;7.70;;;22.40;98.20;;;;;;5093967;28;20024;-85
2021/07/24 07:14:51;;;;;;;9.60;8.65;;;22.60;98.40;;;;;;5094069;28;20066;-84
2021/07/24 07:17:17;;;;;;;10.10;9.00;;;22.70;98.40;;;;;;5093621;28;20031;-84
2021/07/24 07:19:43;;;;;;;9.40;8.50;;;23.00;97.50;;;;;;5093848;28;20035;-84
2021/07/24 07:22:08;;;;;;;14.77;8.85;;;23.00;97.10;;;;;;5093865;28;20423;-84
2021/07/24 07:24:35;;;;;;;10.27;8.73;;;23.00;98.10;;;;;;5094068;28;20080;-83
2021/07/24 07:27:01;;;;;;;11.05;8.40;;;23.10;97.80;;;;;;5094194;28;20027;-85
2021/07/24 07:29:26;;;;;;;9.40;8.43;;;23.10;97.50;;;;;;5093803;28;20378;-84
2021/07/24 07:31:52;;;;;;;9.95;8.40;;;23.30;97.00;;;;;;5093688;28;20032;-82
2021/07/24 07:34:18;;;;;;;9.38;8.00;;;23.50;96.40;;;;;;5093451;28;20024;-83
2021/07/24 07:36:43;;;;;;;8.65;7.60;;;23.60;96.30;;;;;;5093467;28;20107;-82
2021/07/24 07:39:09;;;;;;;13.45;8.18;;;23.70;95.70;;;;;;5093545;28;20024;-84
2021/07/24 07:41:35;;;;;;;11.98;9.27;;;23.80;96.90;;;;;;5093320;28;20028;-82
2021/07/24 07:44:00;;;;;;;11.13;7.70;;;23.90;95.50;;;;;;5093373;28;20020;-82
2021/07/24 07:46:26;;;;;;;9.02;8.13;;;24.00;95.50;;;;;;5093344;28;20024;-82
2021/07/24 07:48:51;;;;;;;11.93;8.27;;;24.10;95.80;;;;;;5093349;28;20016;-84
2021/07/24 07:51:17;;;;;;;10.50;7.70;;;24.10;95.00;;;;;;5093120;28;20119;-82
2021/07/24 07:53:43;;;;;;;8.77;7.75;;;24.20;95.00;;;;;;5093237;28;20034;-82
2021/07/24 07:56:11;;;;;;;8.07;7.28;;;24.30;94.30;;;;;;5093169;28;20031;-83
2021/07/24 07:58:37;;;;;;;11.75;7.03;;;24.40;94.70;;;;;;5093414;28;20032;-83
2021/07/24 08:01:13;;;;;;;12.55;7.57;;;24.50;95.20;;;;;;5092876;28;20065;-83
2021/07/24 08:03:42;;;;;;;8.30;7.50;;;24.70;93.90;;;;;;5093206;28;20059;-82
2021/07/24 08:06:08;;;;;;;10.10;7.70;;;24.80;93.10;;;;;;5092991;28;20110;-84
2021/07/24 08:08:34;;;;;;;10.05;7.00;;;24.80;92.30;;;;;;5093058;28;20060;-83
2021/07/24 08:11:00;;;;;;;8.57;7.05;;;24.90;92.50;;;;;;5093482;28;20576;-84
2021/07/24 08:13:27;;;;;;;10.77;7.53;;;25.10;92.70;;;;;;5092798;28;20478;-83
2021/07/24 08:15:53;;;;;;;10.50;7.75;;;25.20;92.70;;;;;;5092693;28;20119;-83
2021/07/24 08:18:18;;;;;;;8.48;7.57;;;25.10;91.80;;;;;;5092746;28;20020;-82
2021/07/24 08:20:45;;;;;;;9.30;7.57;;;25.10;91.50;;;;;;5093965;28;20345;-85
2021/07/24 08:23:13;;;;;;;8.38;7.43;;;25.40;91.80;;;;;;5092916;28;20024;-83
2021/07/24 08:25:40;;;;;;;11.25;7.65;;;25.50;91.80;;;;;;5092818;28;20030;-84
2021/07/24 08:28:06;;;;;;;12.60;7.72;;;25.50;91.30;;;;;;5092605;28;20027;-85
2021/07/24 08:30:36;;;;;;;10.10;6.78;;;25.70;91.20;;;;;;5092654;28;20124;-84
2021/07/24 08:33:02;;;;;;;8.02;7.18;;;25.60;91.50;;;;;;5092160;28;20024;-85
2021/07/24 08:35:28;;;;;;;12.85;6.80;;;25.70;90.20;;;;;;5092537;28;20030;-83
2021/07/24 08:37:53;;;;;;;9.65;6.88;;;25.90;91.30;;;;;;5092084;28;20016;-85
2021/07/24 08:40:19;;;;;;;8.23;6.85;;;25.90;89.40;;;;;;5092463;28;20024;-84
2021/07/24 08:42:45;;;;;;;9.43;6.95;;;26.00;89.70;;;;;;5092185;28;20069;-85
2021/07/24 08:45:21;;;;;;;7.13;6.43;;;26.00;89.80;;;;;;5092317;28;20453;-85
2021/07/24 08:47:47;;;;;;;10.95;6.63;;;26.10;88.10;;;;;;5092332;28;20029;-84
2021/07/24 08:50:14;;;;;;;8.55;6.88;;;26.10;86.50;;;;;;5092101;28;20497;-83
2021/07/24 08:52:41;;;;;;;10.00;6.78;;;26.00;86.00;;;;;;5092106;28;20123;-84
2021/07/24 08:55:07;;;;;;;8.63;6.90;;;26.10;87.20;;;;;;5091854;28;20606;-82
2021/07/24 08:57:39;;;;;;;6.72;5.88;;;26.20;86.50;;;;;;5092155;28;20080;-83
2021/07/24 09:00:11;;;;;;;10.63;7.60;;;26.40;85.10;;;;;;5093195;28;20055;-85
2021/07/24 09:02:39;;;;;;;11.52;6.38;;;26.60;83.00;;;;;;5093037;28;20051;-83
2021/07/24 09:05:06;;;;;;;9.30;6.90;;;26.60;83.00;;;;;;5095044;28;20494;-87
2021/07/24 09:07:35;;;;;;;8.18;6.60;;;26.70;82.60;;;;;;5093088;28;20024;-83
2021/07/24 09:10:01;;;;;;;11.13;6.85;;;26.70;82.10;;;;;;5092900;28;20036;-85
2021/07/24 09:12:30;;;;;;;9.93;6.70;;;26.90;83.60;;;;;;5092868;28;20103;-84
2021/07/24 09:14:56;;;;;;;8.45;6.15;;;27.00;83.00;;;;;;5093575;28;20031;-82
2021/07/24 09:17:22;;;;;;;7.70;6.40;;;27.00;81.10;;;;;;5093350;28;20017;-85
2021/07/24 09:19:52;;;;;;;9.60;6.78;;;27.10;81.10;;;;;;5093120;28;20078;-87
2021/07/24 09:22:25;;;;;;;7.57;6.47;;;27.20;80.10;;;;;;5101032;28;20020;-80
2021/07/24 09:25:36;;;;;;;11.75;6.65;;;27.30;80.20;;;;;;5097151;28;20036;-80
2021/07/24 09:28:11;;;;;;;10.32;6.65;;;27.30;80.00;;;;;;5093561;28;20031;-84
2021/07/24 09:30:38;;;;;;;8.20;6.57;;;27.40;80.10;;;;;;5097361;28;20122;-81
2021/07/24 09:33:08;;;;;;;14.07;6.97;;;27.60;80.20;;;;;;5097158;28;20511;-81
2021/07/24 09:35:35;;;;;;;8.85;6.80;;;27.70;79.80;;;;;;5097237;28;20039;-84
2021/07/24 09:38:00;;;;;;;8.10;6.40;;;27.80;79.10;;;;;;5096910;28;20073;-82
2021/07/24 09:40:26;;;;;;;10.23;6.00;;;27.80;77.20;;;;;;5096932;28;20028;-85
2021/07/24 09:42:52;;;;;;;7.70;6.35;;;27.80;78.20;;;;;;5097811;28;20012;-85
2021/07/24 09:45:20;;;;;;;6.80;6.20;;;27.90;76.40;;;;;;5096992;28;20044;-84
2021/07/24 09:47:47;;;;;;;9.40;6.63;;;28.00;75.00;;;;;;5096957;28;20093;-84
2021/07/24 09:50:14;;;;;;;8.07;6.25;;;28.00;74.20;;;;;;5097537;28;20479;-80
2021/07/24 09:52:52;;;;;;;9.50;6.13;;;28.00;75.00;;;;;;5096881;28;20111;-80
2021/07/24 09:55:25;;;;;;;9.27;6.32;;;27.80;73.80;;;;;;5096736;28;20024;-81
2021/07/24 09:57:57;;;;;;;8.25;6.35;;;27.90;73.70;;;;;;5096778;28;20112;-82
2021/07/24 10:00:25;;;;;;;7.30;5.65;;;27.90;73.30;;;;;;5096558;28;20051;-83
2021/07/24 10:02:58;;;;;;;8.45;6.22;;;28.00;73.80;;;;;;5096728;28;20391;-81
2021/07/24 10:05:38;;;;;;;8.50;6.15;;;28.20;73.90;;;;;;5096777;28;20123;-80
2021/07/24 10:08:06;;;;;;;9.57;6.20;;;28.20;71.90;;;;;;5096624;28;20058;-81
2021/07/24 10:10:35;;;;;;;10.13;5.95;;;28.20;71.60;;;;;;5096510;28;20055;-83
2021/07/24 10:13:02;;;;;;;7.03;6.32;;;28.40;71.80;;;;;;5096581;28;20099;-84
2021/07/24 10:15:35;;;;;;;6.25;5.63;;;28.40;70.40;;;;;;5096143;28;20024;-84
2021/07/24 10:18:01;;;;;;;6.97;5.60;;;28.30;70.30;;;;;;5096349;28;20845;-86
2021/07/24 10:20:28;;;;;;;6.30;5.70;;;28.30;72.50;;;;;;5095905;28;20087;-86
2021/07/24 10:22:55;;;;;;;6.57;5.65;;;28.50;74.10;;;;;;5096121;28;20024;-85
2021/07/24 10:25:21;;;;;;;7.45;5.93;;;28.60;71.40;;;;;;5096294;28;20094;-86
2021/07/24 10:27:49;;;;;;;7.30;6.25;;;28.60;70.10;;;;;;5096226;28;20031;-87
2021/07/24 10:30:15;;;;;;;11.15;6.00;;;28.50;70.40;;;;;;5095826;28;20044;-84
2021/07/24 10:32:42;;;;;;;7.68;5.70;;;28.40;71.40;;;;;;5095644;28;20028;-82
2021/07/24 10:35:09;;;;;;;8.15;5.93;;;28.40;72.90;;;;;;5095269;28;20605;-82
2021/07/24 10:37:44;;;;;;;6.68;5.50;;;28.40;70.80;;;;;;5095932;28;20059;-84
2021/07/24 10:40:16;;;;;;;7.00;5.43;;;28.40;71.70;;;;;;5095948;28;20467;-86
2021/07/24 10:42:44;;;;;;;6.50;5.80;;;28.50;73.00;;;;;;5095844;28;20124;-82
2021/07/24 10:45:37;;;;;;;9.02;6.05;;;28.60;70.70;;;;;;5095711;28;20115;-83
2021/07/24 10:48:15;;;;;;;7.13;6.13;;;28.40;70.20;;;;;;5095714;28;20028;-86
2021/07/24 10:50:53;;;;;;;8.43;6.22;;;28.40;70.80;;;;;;5095605;28;20502;-82
2021/07/24 10:53:19;;;;;;;9.60;5.65;;;28.50;71.00;;;;;;5095896;28;20040;-82
2021/07/24 10:55:46;;;;;;;7.78;6.10;;;28.30;72.30;;;;;;5095723;28;20020;-87
2021/07/24 10:58:14;;;;;;;6.70;5.80;;;28.40;70.90;;;;;;5095737;28;20039;-83
2021/07/24 11:00:50;;;;;;;6.07;5.47;;;28.50;70.90;;;;;;5096777;28;20628;-82
2021/07/24 11:03:31;;;;;;;6.13;5.53;;;28.60;71.90;;;;;;5095328;28;20016;-83
2021/07/24 11:05:58;;;;;;;6.07;5.40;;;28.80;71.50;;;;;;5095459;28;20028;-86
2021/07/24 11:09:09;;;;;;;8.00;5.53;;;29.10;69.50;;;;;;5095258;28;20032;-87
2021/07/24 11:12:05;;;;;;;9.07;6.03;;;29.40;69.70;;;;;;5080232;28;20105;-82
2021/07/24 11:14:34;;;;;;;8.40;5.80;;;29.50;68.40;;;;;;5088946;28;20036;-81
2021/07/24 11:17:07;;;;;;;8.13;6.07;;;29.50;68.10;;;;;;5095234;28;20375;-81
2021/07/24 11:19:33;;;;;;;6.53;5.53;;;29.40;67.90;;;;;;5095319;28;20028;-85
2021/07/24 11:22:19;;;;;;;9.43;6.30;;;29.40;66.70;;;;;;5094873;28;20024;-81
2021/07/24 11:25:04;;;;;;;6.68;5.93;;;29.30;68.60;;;;;;5095090;28;20024;-86
2021/07/24 11:27:34;;;;;;;10.65;6.18;;;29.20;68.90;;;;;;5094939;28;20023;-87
2021/07/24 11:30:06;;;;;;;9.60;6.53;;;29.10;69.80;;;;;;5094888;28;20036;-83
2021/07/24 11:32:45;;;;;;;8.65;6.03;;;29.00;69.40;;;;;;5094748;28;20024;-82
2021/07/24 11:35:17;;;;;;;8.20;5.82;;;28.80;69.50;;;;;;5094859;28;20073;-82
2021/07/24 11:37:48;;;;;;;7.85;5.80;;;28.90;70.50;;;;;;5095859;28;20475;-80
2021/07/24 11:40:21;;;;;;;11.63;6.25;;;29.00;70.90;;;;;;5094902;28;20031;-83
2021/07/24 11:43:11;;;;;;;7.32;6.43;;;29.10;71.60;;;;;;5094767;28;20024;-84
2021/07/24 11:45:41;;;;;;;10.05;5.72;;;29.10;69.10;;;;;;5093773;28;20467;-80
2021/07/24 11:48:09;;;;;;;8.50;6.30;;;28.90;69.10;;;;;;5095835;28;20024;-83
2021/07/24 11:50:36;;;;;;;9.52;6.22;;;28.90;68.80;;;;;;5094345;28;20032;-82
2021/07/24 11:53:02;;;;;;;7.20;5.93;;;28.90;69.90;;;;;;5094360;28;20478;-83
2021/07/24 11:55:29;;;;;;;11.55;6.28;;;29.10;69.40;;;;;;5094564;28;20153;-83
2021/07/24 11:58:06;;;;;;;8.50;6.00;;;29.30;71.20;;;;;;5094127;28;20024;-83
2021/07/24 12:00:38;;;;;;;10.73;5.82;;;29.50;68.80;;;;;;5094257;28;20093;-83
2021/07/24 12:03:15;;;;;;;8.35;6.07;;;29.50;67.70;;;;;;5094286;28;20055;-84
2021/07/24 12:05:41;;;;;;;7.90;6.20;;;29.60;68.00;;;;;;5094140;28;20140;-82
2021/07/24 12:08:08;;;;;;;8.38;6.20;;;29.20;67.00;;;;;;5094229;28;20352;-82
2021/07/24 12:10:46;;;;;;;9.50;6.05;;;29.00;68.00;;;;;;5095109;28;20035;-83
2021/07/24 12:13:12;;;;;;;6.78;5.43;;;28.90;68.20;;;;;;5094041;28;20024;-82
2021/07/24 12:16:12;;;;;;;10.68;5.72;;;28.80;68.20;;;;;;5093884;28;20035;-82
2021/07/24 12:18:40;;;;;;;11.20;6.40;;;28.90;67.40;;;;;;5094065;28;20020;-81
2021/07/24 12:21:19;;;;;;;5.78;5.05;;;28.80;68.70;;;;;;5093875;28;20016;-85
2021/07/24 12:23:58;;;;;;;7.07;6.20;;;28.90;69.80;;;;;;5093979;28;20024;-82
2021/07/24 12:26:33;;;;;;;9.15;5.90;;;29.00;68.70;;;;;;5093938;28;20402;-83
2021/07/24 12:29:20;;;;;;;6.82;5.80;;;29.10;68.10;;;;;;5093775;28;20192;-81
2021/07/24 12:31:47;;;;;;;8.43;5.82;;;29.00;68.40;;;;;;5093778;28;20035;-86
2021/07/24 12:34:21;;;;;;;7.10;6.22;;;28.70;68.60;;;;;;5093848;28;20023;-85
2021/07/24 12:36:51;;;;;;;9.43;5.72;;;28.60;68.50;;;;;;5093783;28;20387;-83
2021/07/24 12:39:18;;;;;;;9.10;5.70;;;28.50;69.50;;;;;;5093760;28;20023;-88
2021/07/24 12:41:44;;;;;;;8.82;5.93;;;28.60;69.70;;;;;;5093684;28;20137;-82
2021/07/24 12:44:10;;;;;;;9.30;6.57;;;28.80;69.20;;;;;;5093761;28;20034;-85
2021/07/24 12:46:37;;;;;;;6.97;6.20;;;29.00;68.40;;;;;;5093683;28;20024;-82